Time;durP1;ratioP1;P1;durP2;ratioP2;P2;SDS_P1;SDS_P2;PMS_P1;PMS_P2;Temp;Humidity;BMP_temperature;BMP_pressure;BME280_temperature;BME280_humidity;BME280_pressure;Samples;Min_cycle;Max_cycle;Signal;HPM_P1;HPM_P2
2022/01/24 00:01:22;;;;;;;36.00;20.33;;;;;;;;;;4451068;32;20291;-81
2022/01/24 00:03:47;;;;;;;36.77;18.23;;;;;;;;;;4447752;32;20220;-87
2022/01/24 00:06:16;;;;;;;26.50;14.60;;;;;;;;;;4436014;32;20267;-87
2022/01/24 00:08:41;;;;;;;28.57;15.40;;;;;;;;;;4450093;32;20209;-83
2022/01/24 00:11:12;;;;;;;31.13;17.00;;;;;;;;;;4450069;32;20227;-81
2022/01/24 00:14:20;;;;;;;31.37;16.50;;;;;;;;;;4436058;32;20290;-85
2022/01/24 00:16:34;;;;;;;32.97;18.37;;;;;;;;;;4449949;32;20294;-82
2022/01/24 00:26:59;;;;;;;32.17;18.33;;;;;;;;;;4450079;32;20362;-84
2022/01/24 00:29:26;;;;;;;42.93;20.23;;;;;;;;;;4450435;32;20209;-84
2022/01/24 00:31:53;;;;;;;33.57;20.37;;;;;;;;;;4436160;32;20232;-83
2022/01/24 00:34:19;;;;;;;52.70;24.27;;;;;;;;;;4450369;32;20216;-89
2022/01/24 00:36:49;;;;;;;92.90;33.73;;;;;;;;;;4450213;32;20706;-83
2022/01/24 00:39:15;;;;;;;88.03;30.80;;;;;;;;;;4450255;32;20192;-88
2022/01/24 00:46:56;;;;;;;78.23;29.70;;;;;;;;;;4450139;32;20307;-85
2022/01/24 00:54:52;;;;;;;50.27;23.97;;;;;;;;;;4449160;32;20234;-82
2022/01/24 00:57:18;;;;;;;74.53;28.00;;;;;;;;;;4435244;32;20285;-91
2022/01/24 00:59:44;;;;;;;78.83;28.93;;;;;;;;;;4435126;32;20780;-93
2022/01/24 01:02:09;;;;;;;77.60;29.00;;;;;;;;;;4449883;32;20227;-82
2022/01/24 01:07:12;;;;;;;78.03;29.97;;;;;;;;;;4449868;32;20257;-81
2022/01/24 01:18:15;;;;;;;52.63;24.23;;;;;;;;;;4449511;32;20303;-81
2022/01/24 01:21:18;;;;;;;59.63;26.73;;;;;;;;;;4449503;32;20283;-83
2022/01/24 01:23:41;;;;;;;58.80;27.73;;;;;;;;;;4445432;32;20232;-90
2022/01/24 01:26:14;;;;;;;51.60;21.70;;;;;;;;;;4448817;32;20225;-82
2022/01/24 01:28:44;;;;;;;42.83;18.43;;;;;;;;;;4448969;32;20354;-92
2022/01/24 01:31:17;;;;;;;35.53;15.97;;;;;;;;;;4449241;32;20576;-88
2022/01/24 01:39:15;;;;;;;25.97;12.63;;;;;;;;;;4449526;32;20325;-85
2022/01/24 01:52:53;;;;;;;38.20;17.47;;;;;;;;;;4426288;32;20243;-82
2022/01/24 01:55:38;;;;;;;37.07;17.07;;;;;;;;;;4448976;32;20633;-83
2022/01/24 01:58:22;;;;;;;37.93;16.93;;;;;;;;;;4448950;32;20297;-81
2022/01/24 02:00:54;;;;;;;21.97;13.23;;;;;;;;;;4448943;32;20193;-81
2022/01/24 02:03:21;;;;;;;23.60;10.87;;;;;;;;;;4445862;32;20220;-88
2022/01/24 02:05:46;;;;;;;17.13;9.73;;;;;;;;;;4448960;32;20236;-84
2022/01/24 02:08:13;;;;;;;23.10;9.83;;;;;;;;;;4449121;32;20711;-88
2022/01/24 02:10:41;;;;;;;18.67;10.40;;;;;;;;;;4448638;32;20193;-82
2022/01/24 02:13:07;;;;;;;35.30;13.53;;;;;;;;;;4448995;32;20703;-85
2022/01/24 02:21:26;;;;;;;18.17;10.67;;;;;;;;;;4449401;32;20219;-85
2022/01/24 02:23:52;;;;;;;17.80;11.17;;;;;;;;;;4434470;32;20256;-83
2022/01/24 02:26:21;;;;;;;11.57;8.33;;;;;;;;;;4433443;32;20251;-81
2022/01/24 02:34:25;;;;;;;18.47;10.37;;;;;;;;;;4434978;32;20251;-84
2022/01/24 02:36:51;;;;;;;17.97;10.27;;;;;;;;;;4434068;32;20293;-84
2022/01/24 02:40:05;;;;;;;15.50;10.10;;;;;;;;;;4420033;32;20321;-83
2022/01/24 02:50:41;;;;;;;30.83;14.27;;;;;;;;;;4449542;32;20331;-88
2022/01/24 02:53:07;;;;;;;22.03;12.10;;;;;;;;;;4449555;32;20242;-89
2022/01/24 02:55:37;;;;;;;23.40;12.97;;;;;;;;;;4449745;32;20200;-89
2022/01/24 02:58:03;;;;;;;32.60;13.03;;;;;;;;;;4449983;32;20301;-83
2022/01/24 03:00:29;;;;;;;25.33;13.60;;;;;;;;;;4450330;32;20197;-84
2022/01/24 03:02:56;;;;;;;32.00;14.83;;;;;;;;;;4432208;32;20252;-89
2022/01/24 03:05:21;;;;;;;24.27;11.57;;;;;;;;;;4420910;32;20273;-89
2022/01/24 03:07:46;;;;;;;18.47;10.83;;;;;;;;;;4434087;32;20369;-89
2022/01/24 03:10:23;;;;;;;17.47;10.40;;;;;;;;;;4433954;32;20198;-88
2022/01/24 03:12:59;;;;;;;16.40;10.60;;;;;;;;;;4434748;32;20304;-86
2022/01/24 03:15:25;;;;;;;17.50;10.97;;;;;;;;;;4448240;32;20577;-90
2022/01/24 03:17:52;;;;;;;24.80;12.27;;;;;;;;;;4449656;32;20727;-83
2022/01/24 03:20:17;;;;;;;16.37;10.77;;;;;;;;;;4449358;32;20193;-83
2022/01/24 03:22:43;;;;;;;20.17;11.97;;;;;;;;;;4449550;32;20212;-92
2022/01/24 03:25:08;;;;;;;27.47;13.50;;;;;;;;;;4451283;32;20631;-86
2022/01/24 03:27:34;;;;;;;19.43;12.40;;;;;;;;;;4451965;32;20224;-95
2022/01/24 03:29:59;;;;;;;19.97;12.90;;;;;;;;;;4438103;32;20275;-88
2022/01/24 03:32:24;;;;;;;31.63;16.27;;;;;;;;;;4451613;32;20339;-88
2022/01/24 03:34:50;;;;;;;24.00;12.97;;;;;;;;;;4451967;32;20333;-89
2022/01/24 03:37:15;;;;;;;19.97;12.83;;;;;;;;;;4451886;32;20677;-95
2022/01/24 03:39:41;;;;;;;35.07;15.97;;;;;;;;;;4452168;32;20244;-91
2022/01/24 03:42:06;;;;;;;31.03;14.70;;;;;;;;;;4452035;32;20216;-83
2022/01/24 03:44:33;;;;;;;26.80;15.87;;;;;;;;;;4452041;32;20254;-87
2022/01/24 03:52:08;;;;;;;27.77;16.67;;;;;;;;;;4452189;32;20265;-82
2022/01/24 03:54:34;;;;;;;25.97;13.83;;;;;;;;;;4451728;32;20209;-83
2022/01/24 03:57:00;;;;;;;23.07;12.70;;;;;;;;;;4451978;32;20271;-91
2022/01/24 03:59:26;;;;;;;21.43;12.93;;;;;;;;;;4451598;32;20240;-90
2022/01/24 04:01:51;;;;;;;32.30;14.50;;;;;;;;;;4451601;32;20247;-91
2022/01/24 04:04:17;;;;;;;24.93;14.60;;;;;;;;;;4451446;32;20275;-91
2022/01/24 04:06:42;;;;;;;28.00;14.67;;;;;;;;;;4451426;32;20212;-82
2022/01/24 04:09:08;;;;;;;17.47;11.23;;;;;;;;;;4451505;32;20598;-84
2022/01/24 04:11:35;;;;;;;19.47;9.10;;;;;;;;;;4451211;32;20601;-94
2022/01/24 04:14:11;;;;;;;21.90;12.63;;;;;;;;;;4451255;32;20268;-82
2022/01/24 04:16:41;;;;;;;18.17;11.50;;;;;;;;;;4437448;32;20211;-83
2022/01/24 04:21:17;;;;;;;25.80;13.57;;;;;;;;;;4450774;32;20200;-83
2022/01/24 04:21:55;;;;;;;25.27;12.93;;;;;;;;;;4449656;32;20250;-90
2022/01/24 04:24:23;;;;;;;21.87;12.87;;;;;;;;;;4450565;32;20699;-91
2022/01/24 04:26:49;;;;;;;37.13;17.70;;;;;;;;;;4450455;32;20734;-83
2022/01/24 04:29:14;;;;;;;40.33;19.43;;;;;;;;;;4436456;32;20233;-83
2022/01/24 04:31:39;;;;;;;32.20;17.40;;;;;;;;;;4451711;32;20727;-82
2022/01/24 04:34:05;;;;;;;23.70;13.17;;;;;;;;;;4450989;32;20295;-93
2022/01/24 04:36:31;;;;;;;24.70;11.30;;;;;;;;;;4450010;32;20448;-82
2022/01/24 04:38:56;;;;;;;34.40;15.63;;;;;;;;;;4451060;32;20236;-84
2022/01/24 04:41:29;;;;;;;30.97;15.13;;;;;;;;;;4450667;32;20247;-82
2022/01/24 04:44:03;;;;;;;26.03;13.23;;;;;;;;;;4453390;32;20517;-84
2022/01/24 04:56:38;;;;;;;40.67;17.93;;;;;;;;;;4451066;32;20197;-88
2022/01/24 04:59:05;;;;;;;22.87;12.77;;;;;;;;;;4450826;32;20624;-84
2022/01/24 05:01:30;;;;;;;28.70;13.97;;;;;;;;;;4451186;32;20291;-91
2022/01/24 05:03:56;;;;;;;26.20;15.33;;;;;;;;;;4451256;32;20514;-88
2022/01/24 05:06:21;;;;;;;38.50;18.03;;;;;;;;;;4450346;32;20730;-82
2022/01/24 05:08:46;;;;;;;26.97;14.13;;;;;;;;;;4450239;32;20261;-83
2022/01/24 05:11:22;;;;;;;34.47;15.87;;;;;;;;;;4449850;32;20669;-81
2022/01/24 05:24:48;;;;;;;35.70;18.83;;;;;;;;;;4401776;32;20680;-87
2022/01/24 05:27:14;;;;;;;34.27;16.83;;;;;;;;;;4428215;32;20280;-85
2022/01/24 05:29:39;;;;;;;31.90;16.60;;;;;;;;;;4456157;32;20227;-87
2022/01/24 05:32:08;;;;;;;24.97;14.90;;;;;;;;;;4453533;32;20613;-84
2022/01/24 05:34:34;;;;;;;33.93;17.03;;;;;;;;;;4454331;32;20674;-84
2022/01/24 05:36:59;;;;;;;55.10;27.23;;;;;;;;;;4453222;32;20216;-83
2022/01/24 05:39:25;;;;;;;67.60;31.00;;;;;;;;;;4454232;32;20324;-81
2022/01/24 05:41:50;;;;;;;76.93;35.03;;;;;;;;;;4452987;32;20401;-81
2022/01/24 05:44:16;;;;;;;67.03;32.30;;;;;;;;;;4456947;32;20189;-81
2022/01/24 05:46:41;;;;;;;59.87;31.07;;;;;;;;;;4451454;32;20280;-80
2022/01/24 05:49:07;;;;;;;55.43;29.90;;;;;;;;;;4458251;32;20185;-81
2022/01/24 05:51:32;;;;;;;57.67;27.67;;;;;;;;;;4439197;32;20228;-82
2022/01/24 05:53:58;;;;;;;56.20;26.53;;;;;;;;;;4455582;32;20319;-82
2022/01/24 05:56:24;;;;;;;73.03;31.33;;;;;;;;;;4451026;32;20264;-83
2022/01/24 05:58:49;;;;;;;80.20;37.67;;;;;;;;;;4437074;32;20757;-86
2022/01/24 06:01:15;;;;;;;75.83;35.33;;;;;;;;;;4434445;32;20251;-88
2022/01/24 06:03:40;;;;;;;47.83;20.67;;;;;;;;;;4448749;32;20331;-89
2022/01/24 06:06:08;;;;;;;43.90;25.10;;;;;;;;;;4449719;32;20213;-82
2022/01/24 06:08:34;;;;;;;23.07;13.77;;;;;;;;;;4435097;32;20293;-84
2022/01/24 06:11:00;;;;;;;31.60;14.57;;;;;;;;;;4450707;32;20289;-85
2022/01/24 06:13:26;;;;;;;29.57;17.50;;;;;;;;;;4448794;32;20240;-83
2022/01/24 06:15:52;;;;;;;37.17;20.70;;;;;;;;;;4449329;32;20612;-84
2022/01/24 06:18:17;;;;;;;36.20;21.27;;;;;;;;;;4448964;32;20331;-82
2022/01/24 06:20:43;;;;;;;37.70;22.50;;;;;;;;;;4432875;32;20223;-86
2022/01/24 06:23:15;;;;;;;29.70;17.80;;;;;;;;;;4432982;32;20360;-86
2022/01/24 06:25:40;;;;;;;55.90;26.23;;;;;;;;;;4448062;32;20659;-87
2022/01/24 06:28:07;;;;;;;48.10;22.33;;;;;;;;;;4448115;32;20204;-89
2022/01/24 06:30:33;;;;;;;43.03;21.53;;;;;;;;;;4434380;32;20653;-82
2022/01/24 06:32:59;;;;;;;28.97;14.43;;;;;;;;;;4448975;32;20267;-86
2022/01/24 06:35:24;;;;;;;13.03;7.97;;;;;;;;;;4434467;32;20298;-84
2022/01/24 06:37:49;;;;;;;16.50;8.23;;;;;;;;;;4448681;32;20208;-82
2022/01/24 06:40:15;;;;;;;49.43;24.03;;;;;;;;;;4448231;32;20321;-85
2022/01/24 06:42:41;;;;;;;42.07;19.97;;;;;;;;;;4448600;32;20345;-83
2022/01/24 06:45:08;;;;;;;18.50;10.27;;;;;;;;;;4448310;32;20216;-88
2022/01/24 06:47:34;;;;;;;15.40;10.43;;;;;;;;;;4448674;32;20192;-82
2022/01/24 06:50:00;;;;;;;24.27;12.90;;;;;;;;;;4448300;32;20255;-82
2022/01/24 06:52:26;;;;;;;18.97;9.90;;;;;;;;;;4421869;32;20260;-89
2022/01/24 06:54:51;;;;;;;18.67;10.47;;;;;;;;;;4435059;32;20257;-91
2022/01/24 06:57:17;;;;;;;18.57;13.07;;;;;;;;;;4448422;32;20621;-83
2022/01/24 06:59:46;;;;;;;12.97;8.20;;;;;;;;;;4450751;32;20212;-82
2022/01/24 07:02:12;;;;;;;29.50;14.53;;;;;;;;;;4451965;32;20375;-84
2022/01/24 07:04:39;;;;;;;14.97;10.00;;;;;;;;;;4437005;32;20545;-83
2022/01/24 07:07:09;;;;;;;17.40;10.27;;;;;;;;;;4435565;32;20205;-86
2022/01/24 07:09:35;;;;;;;19.47;11.60;;;;;;;;;;4435860;32;20331;-88
2022/01/24 07:12:02;;;;;;;17.77;11.33;;;;;;;;;;4447833;32;20287;-84
2022/01/24 07:14:27;;;;;;;19.33;12.00;;;;;;;;;;4451599;32;20274;-84
2022/01/24 07:19:27;;;;;;;15.83;11.23;;;;;;;;;;4451955;32;20254;-90
2022/01/24 07:21:53;;;;;;;19.50;10.70;;;;;;;;;;4454186;32;20251;-85
2022/01/24 07:24:18;;;;;;;18.23;11.37;;;;;;;;;;4454059;32;20291;-90
2022/01/24 07:26:44;;;;;;;33.40;12.87;;;;;;;;;;4452273;32;20599;-92
2022/01/24 07:29:09;;;;;;;20.50;10.73;;;;;;;;;;4450779;32;20308;-87
2022/01/24 07:31:35;;;;;;;15.30;8.70;;;;;;;;;;4450776;32;20305;-87
2022/01/24 07:34:00;;;;;;;14.67;8.37;;;;;;;;;;4450574;32;20299;-81
2022/01/24 07:36:26;;;;;;;20.50;9.10;;;;;;;;;;4451027;32;20226;-82
2022/01/24 07:38:52;;;;;;;11.93;8.33;;;;;;;;;;4451523;32;20239;-84
2022/01/24 07:41:24;;;;;;;15.67;7.93;;;;;;;;;;4450496;32;20266;-81
2022/01/24 07:43:51;;;;;;;21.43;11.63;;;;;;;;;;4450766;32;20422;-87
2022/01/24 07:46:18;;;;;;;18.70;11.60;;;;;;;;;;4450863;32;20617;-83
2022/01/24 07:48:43;;;;;;;14.03;10.30;;;;;;;;;;4450617;32;20249;-86
2022/01/24 07:51:09;;;;;;;14.40;8.70;;;;;;;;;;4450360;32;20223;-82
2022/01/24 07:53:34;;;;;;;17.80;9.07;;;;;;;;;;4450648;32;20221;-84
2022/01/24 07:56:00;;;;;;;16.90;13.23;;;;;;;;;;4435984;32;20378;-88
2022/01/24 07:58:26;;;;;;;15.80;8.83;;;;;;;;;;4449819;32;20301;-83
2022/01/24 08:00:51;;;;;;;11.87;7.70;;;;;;;;;;4449417;32;20723;-86
2022/01/24 08:03:17;;;;;;;38.40;17.87;;;;;;;;;;4450662;32;20789;-85
2022/01/24 08:05:43;;;;;;;15.63;8.70;;;;;;;;;;4450737;32;20352;-83
2022/01/24 08:08:08;;;;;;;15.73;9.57;;;;;;;;;;4450485;32;20244;-84
2022/01/24 08:10:36;;;;;;;12.83;8.93;;;;;;;;;;4450207;32;20333;-82
2022/01/24 08:13:01;;;;;;;95.63;42.83;;;;;;;;;;4450474;32;20256;-86
2022/01/24 08:15:27;;;;;;;20.90;10.93;;;;;;;;;;4450848;32;20234;-82
2022/01/24 08:17:53;;;;;;;27.27;11.80;;;;;;;;;;4450654;32;20234;-83
2022/01/24 08:20:18;;;;;;;25.50;13.30;;;;;;;;;;4450816;32;20242;-92
2022/01/24 08:22:44;;;;;;;18.10;11.40;;;;;;;;;;4450345;32;20227;-83
2022/01/24 08:25:10;;;;;;;16.43;7.83;;;;;;;;;;4449893;32;20364;-85
2022/01/24 08:27:37;;;;;;;19.50;10.43;;;;;;;;;;4450185;32;20209;-85
2022/01/24 08:30:12;;;;;;;20.73;11.13;;;;;;;;;;4436507;32;20386;-87
2022/01/24 08:32:38;;;;;;;16.03;9.97;;;;;;;;;;4450037;32;20204;-92
2022/01/24 08:35:04;;;;;;;28.23;17.17;;;;;;;;;;4450148;32;20296;-82
2022/01/24 08:37:30;;;;;;;28.33;15.53;;;;;;;;;;4450743;32;20685;-85
2022/01/24 08:39:58;;;;;;;26.57;15.83;;;;;;;;;;4451866;32;20638;-84
2022/01/24 08:47:26;;;;;;;13.97;9.00;;;;;;;;;;4450460;32;20602;-88
2022/01/24 08:49:52;;;;;;;17.20;9.50;;;;;;;;;;4450631;32;20562;-84
2022/01/24 08:52:18;;;;;;;16.40;9.27;;;;;;;;;;4449988;32;20250;-90
2022/01/24 08:54:47;;;;;;;16.13;10.60;;;;;;;;;;4449913;32;20557;-85
2022/01/24 08:57:13;;;;;;;21.20;11.33;;;;;;;;;;4450167;32;20224;-83
2022/01/24 08:59:41;;;;;;;16.27;10.57;;;;;;;;;;4449508;32;20737;-83
2022/01/24 09:02:08;;;;;;;20.13;12.53;;;;;;;;;;4449261;32;20259;-83
2022/01/24 09:04:35;;;;;;;34.47;16.17;;;;;;;;;;4449497;32;20564;-85
2022/01/24 09:07:04;;;;;;;30.70;11.70;;;;;;;;;;4449097;32;20346;-83
2022/01/24 09:09:34;;;;;;;21.43;10.47;;;;;;;;;;4449461;32;20545;-86
2022/01/24 09:12:02;;;;;;;28.73;12.43;;;;;;;;;;4448761;32;20277;-87
2022/01/24 09:14:28;;;;;;;25.20;13.13;;;;;;;;;;4449077;32;20204;-84
2022/01/24 09:16:54;;;;;;;16.17;9.97;;;;;;;;;;4449416;32;20224;-83
2022/01/24 09:19:19;;;;;;;19.73;8.73;;;;;;;;;;4434754;32;20296;-85
2022/01/24 09:21:45;;;;;;;13.27;7.47;;;;;;;;;;4448754;32;20252;-84
2022/01/24 09:24:10;;;;;;;13.73;8.33;;;;;;;;;;4435144;32;20340;-83
2022/01/24 09:26:36;;;;;;;10.83;5.77;;;;;;;;;;4449016;32;20268;-82
2022/01/24 09:29:03;;;;;;;96.67;32.33;;;;;;;;;;4449145;32;20254;-84
2022/01/24 09:31:30;;;;;;;33.47;11.50;;;;;;;;;;4449108;32;20299;-86
2022/01/24 09:33:56;;;;;;;12.07;8.43;;;;;;;;;;4449182;32;20236;-83
2022/01/24 09:36:22;;;;;;;15.77;8.67;;;;;;;;;;4448899;32;20253;-89
2022/01/24 09:38:48;;;;;;;21.40;9.57;;;;;;;;;;4435334;32;20251;-91
2022/01/24 09:41:14;;;;;;;15.90;9.00;;;;;;;;;;4449101;32;20217;-82
2022/01/24 09:43:41;;;;;;;21.47;12.73;;;;;;;;;;4448938;32;20204;-83
2022/01/24 09:46:08;;;;;;;15.90;7.93;;;;;;;;;;4450523;32;20224;-94
2022/01/24 09:48:33;;;;;;;11.53;8.33;;;;;;;;;;4450842;32;20265;-88
2022/01/24 09:50:59;;;;;;;22.03;13.40;;;;;;;;;;4435327;32;20232;-87
2022/01/24 09:53:25;;;;;;;18.50;10.07;;;;;;;;;;4435239;32;20268;-83
2022/01/24 09:55:52;;;;;;;11.67;6.57;;;;;;;;;;4448808;32;20418;-81
2022/01/24 09:58:19;;;;;;;8.57;5.77;;;;;;;;;;4449341;32;20291;-83
2022/01/24 10:00:45;;;;;;;11.13;5.97;;;;;;;;;;4448129;32;20237;-81
2022/01/24 10:03:14;;;;;;;8.63;6.10;;;;;;;;;;4440135;32;20299;-82
2022/01/24 10:05:42;;;;;;;23.83;11.77;;;;;;;;;;4432865;32;20296;-85
2022/01/24 10:08:14;;;;;;;16.23;9.00;;;;;;;;;;4433312;32;20217;-82
2022/01/24 10:10:57;;;;;;;12.40;9.20;;;;;;;;;;4433175;32;20245;-83
2022/01/24 10:19:21;;;;;;;17.83;9.07;;;;;;;;;;4437884;32;20280;-85
2022/01/24 10:21:54;;;;;;;17.70;10.67;;;;;;;;;;4436288;32;20224;-83
2022/01/24 10:24:43;;;;;;;11.37;7.43;;;;;;;;;;4436631;32;20239;-83
2022/01/24 10:27:17;;;;;;;16.00;10.37;;;;;;;;;;4433513;32;20233;-81
2022/01/24 10:29:50;;;;;;;17.97;10.37;;;;;;;;;;4435059;32;20223;-82
2022/01/24 10:32:39;;;;;;;21.40;11.73;;;;;;;;;;4435330;32;20737;-81
2022/01/24 10:35:26;;;;;;;11.87;7.77;;;;;;;;;;4440729;32;20255;-82
2022/01/24 10:38:14;;;;;;;16.17;9.50;;;;;;;;;;4436320;32;20308;-88
2022/01/24 10:40:52;;;;;;;20.73;11.30;;;;;;;;;;4435980;32;20221;-82
2022/01/24 10:43:21;;;;;;;14.60;8.13;;;;;;;;;;4424046;32;20220;-82
2022/01/24 10:45:48;;;;;;;17.43;9.20;;;;;;;;;;4436286;32;20237;-83
2022/01/24 10:48:19;;;;;;;31.73;17.67;;;;;;;;;;4435849;32;20245;-83
2022/01/24 10:50:45;;;;;;;21.03;12.90;;;;;;;;;;4435881;32;20310;-85
2022/01/24 10:53:13;;;;;;;18.33;11.27;;;;;;;;;;4422009;32;20295;-85
2022/01/24 10:55:44;;;;;;;18.60;8.73;;;;;;;;;;4435559;32;20216;-86
2022/01/24 10:58:13;;;;;;;26.27;13.13;;;;;;;;;;4436165;32;20189;-83
2022/01/24 11:00:40;;;;;;;16.90;8.80;;;;;;;;;;4435749;32;20270;-87
2022/01/24 11:03:08;;;;;;;15.87;9.47;;;;;;;;;;4440891;32;20233;-85
2022/01/24 11:05:39;;;;;;;15.93;9.03;;;;;;;;;;4451593;32;20316;-82
2022/01/24 11:08:15;;;;;;;12.13;8.40;;;;;;;;;;4450182;32;20762;-84
2022/01/24 11:10:44;;;;;;;24.27;13.07;;;;;;;;;;4451586;32;20707;-82
2022/01/24 11:13:11;;;;;;;22.27;12.70;;;;;;;;;;4451370;32;20291;-82
2022/01/24 11:15:41;;;;;;;19.63;10.30;;;;;;;;;;4451145;32;20313;-82
2022/01/24 11:18:09;;;;;;;24.00;13.57;;;;;;;;;;4451366;32;20255;-82
2022/01/24 11:20:39;;;;;;;97.63;36.37;;;;;;;;;;4451098;32;20239;-82
2022/01/24 11:23:07;;;;;;;28.07;15.07;;;;;;;;;;4450040;32;20262;-81
2022/01/24 11:25:38;;;;;;;14.77;9.13;;;;;;;;;;4451406;32;20258;-81
2022/01/24 11:28:04;;;;;;;17.73;8.33;;;;;;;;;;4449596;32;20253;-82
2022/01/24 11:30:47;;;;;;;15.33;8.27;;;;;;;;;;4449609;32;20252;-82
2022/01/24 11:33:18;;;;;;;12.83;8.73;;;;;;;;;;4450657;32;20259;-86
2022/01/24 11:35:55;;;;;;;13.27;8.33;;;;;;;;;;4450852;32;20201;-86
2022/01/24 11:38:31;;;;;;;10.60;6.97;;;;;;;;;;4451766;32;20225;-86
2022/01/24 11:41:26;;;;;;;18.27;9.23;;;;;;;;;;4451557;32;20208;-89
2022/01/24 11:43:55;;;;;;;13.40;7.80;;;;;;;;;;4450975;32;20256;-88
2022/01/24 11:46:48;;;;;;;30.63;13.70;;;;;;;;;;4451083;32;20338;-83
2022/01/24 11:49:18;;;;;;;17.57;8.57;;;;;;;;;;4450528;32;20338;-84
2022/01/24 11:51:47;;;;;;;19.37;11.53;;;;;;;;;;4449221;32;20325;-82
2022/01/24 11:57:16;;;;;;;26.33;10.73;;;;;;;;;;4393323;32;20679;-83
2022/01/24 11:59:43;;;;;;;29.27;12.67;;;;;;;;;;4434896;32;20530;-83
2022/01/24 12:02:12;;;;;;;19.70;10.37;;;;;;;;;;4420829;32;20244;-81
2022/01/24 12:04:58;;;;;;;19.97;10.77;;;;;;;;;;4434949;32;20250;-82
2022/01/24 12:07:29;;;;;;;34.60;14.87;;;;;;;;;;4446556;32;20594;-82
2022/01/24 12:10:15;;;;;;;15.87;9.17;;;;;;;;;;4436583;32;20205;-82
2022/01/24 12:12:47;;;;;;;27.80;13.37;;;;;;;;;;4450801;32;20283;-83
2022/01/24 12:15:38;;;;;;;15.00;8.27;;;;;;;;;;4450805;32;20295;-82
2022/01/24 12:18:05;;;;;;;15.07;8.60;;;;;;;;;;4450238;32;20251;-83
2022/01/24 12:20:31;;;;;;;25.53;12.40;;;;;;;;;;4450145;32;20699;-82
2022/01/24 12:23:19;;;;;;;18.20;9.23;;;;;;;;;;4450442;32;20268;-83
2022/01/24 12:25:57;;;;;;;20.50;10.47;;;;;;;;;;4450034;32;20463;-82
2022/01/24 12:28:25;;;;;;;23.57;10.50;;;;;;;;;;4450828;32;20304;-81
2022/01/24 12:31:07;;;;;;;19.50;10.90;;;;;;;;;;4450144;32;20293;-82
2022/01/24 12:33:40;;;;;;;21.30;12.30;;;;;;;;;;4450073;32;20283;-84
2022/01/24 12:36:07;;;;;;;14.10;9.77;;;;;;;;;;4449928;32;20212;-83
2022/01/24 12:38:44;;;;;;;24.27;10.27;;;;;;;;;;4436538;32;20751;-82
2022/01/24 12:41:26;;;;;;;19.80;11.57;;;;;;;;;;4450086;32;20204;-82
2022/01/24 12:46:25;;;;;;;24.63;11.37;;;;;;;;;;4450426;32;20256;-86
2022/01/24 12:48:52;;;;;;;24.80;10.87;;;;;;;;;;4450604;32;20352;-82
2022/01/24 12:51:21;;;;;;;15.03;8.30;;;;;;;;;;4450565;32;20244;-81
2022/01/24 12:53:48;;;;;;;22.43;10.30;;;;;;;;;;4437311;32;20652;-82
2022/01/24 12:56:16;;;;;;;26.47;12.40;;;;;;;;;;4450083;32;20586;-82
2022/01/24 12:58:46;;;;;;;31.53;17.13;;;;;;;;;;4450619;32;20232;-83
2022/01/24 13:01:21;;;;;;;30.33;14.63;;;;;;;;;;4423942;32;20335;-83
2022/01/24 13:03:57;;;;;;;14.50;7.90;;;;;;;;;;4450073;32;20602;-82
2022/01/24 13:06:25;;;;;;;13.40;7.67;;;;;;;;;;4450799;32;20282;-83
2022/01/24 13:09:01;;;;;;;14.67;7.90;;;;;;;;;;4436885;32;20315;-83
2022/01/24 13:11:28;;;;;;;30.97;13.70;;;;;;;;;;4450745;32;20248;-82
2022/01/24 13:14:10;;;;;;;24.47;9.10;;;;;;;;;;4435973;32;20251;-85
2022/01/24 13:25:16;;;;;;;30.13;15.27;;;;;;;;;;4450583;32;20231;-84
2022/01/24 13:27:48;;;;;;;23.13;10.83;;;;;;;;;;4450161;32;20259;-82
2022/01/24 13:30:45;;;;;;;22.37;12.27;;;;;;;;;;4451024;32;20188;-82
2022/01/24 13:33:14;;;;;;;26.90;10.17;;;;;;;;;;4450756;32;20328;-81
2022/01/24 13:35:47;;;;;;;15.07;8.13;;;;;;;;;;4450624;32;20238;-81
2022/01/24 13:38:15;;;;;;;31.40;12.93;;;;;;;;;;4451348;32;20557;-82
2022/01/24 13:41:09;;;;;;;31.27;15.53;;;;;;;;;;4451012;32;20367;-84
2022/01/24 13:43:51;;;;;;;33.03;13.60;;;;;;;;;;4451415;32;20577;-82
2022/01/24 13:46:18;;;;;;;22.67;8.80;;;;;;;;;;4451058;32;20605;-84
2022/01/24 13:48:47;;;;;;;22.57;10.83;;;;;;;;;;4436308;32;20236;-82
2022/01/24 13:51:17;;;;;;;31.17;13.50;;;;;;;;;;4450605;32;20554;-81
2022/01/24 13:53:53;;;;;;;18.47;11.00;;;;;;;;;;4437010;32;20236;-84
2022/01/24 13:56:24;;;;;;;18.77;8.73;;;;;;;;;;4451245;32;20239;-79
2022/01/24 13:59:15;;;;;;;26.70;12.97;;;;;;;;;;4450599;32;20315;-80
2022/01/24 14:02:22;;;;;;;27.67;12.83;;;;;;;;;;4451136;32;20529;-78
2022/01/24 14:04:54;;;;;;;32.83;10.83;;;;;;;;;;4345300;32;20714;-76
2022/01/24 14:07:24;;;;;;;39.50;14.97;;;;;;;;;;4367637;32;20370;-80
2022/01/24 14:09:53;;;;;;;21.23;10.87;;;;;;;;;;4402973;32;20244;-80
2022/01/24 14:12:25;;;;;;;26.00;11.83;;;;;;;;;;4436910;32;20578;-79
2022/01/24 14:15:06;;;;;;;8.97;6.17;;;;;;;;;;4451817;32;20303;-84
2022/01/24 14:20:20;;;;;;;21.20;12.37;;;;;;;;;;4453133;32;20246;-79
2022/01/24 14:22:49;;;;;;;21.57;13.07;;;;;;;;;;4453714;32;20286;-77
2022/01/24 14:25:23;;;;;;;19.40;12.50;;;;;;;;;;4452754;32;20367;-83
2022/01/24 14:27:51;;;;;;;19.20;11.37;;;;;;;;;;4452750;32;20262;-80
2022/01/24 14:30:21;;;;;;;17.47;11.17;;;;;;;;;;4453833;32;20209;-82
2022/01/24 14:33:05;;;;;;;46.57;21.13;;;;;;;;;;4453561;32;20787;-81
2022/01/24 14:35:37;;;;;;;34.83;18.97;;;;;;;;;;4454095;32;20209;-78
2022/01/24 14:38:04;;;;;;;53.77;22.67;;;;;;;;;;4431144;32;20270;-78
2022/01/24 14:40:45;;;;;;;54.13;18.20;;;;;;;;;;4461277;32;20249;-77
2022/01/24 14:45:55;;;;;;;23.37;13.13;;;;;;;;;;4446686;32;20294;-86
2022/01/24 14:48:21;;;;;;;32.27;15.57;;;;;;;;;;4445971;32;20303;-89
2022/01/24 14:50:46;;;;;;;28.77;14.73;;;;;;;;;;4445287;32;20232;-91
2022/01/24 14:53:15;;;;;;;37.43;17.27;;;;;;;;;;4445613;32;20267;-82
2022/01/24 14:55:41;;;;;;;22.63;11.17;;;;;;;;;;4445317;32;20252;-78
2022/01/24 14:58:07;;;;;;;22.40;13.20;;;;;;;;;;4446227;32;20272;-79
2022/01/24 15:00:32;;;;;;;33.77;16.77;;;;;;;;;;4439306;32;20251;-83
2022/01/24 15:02:58;;;;;;;27.80;15.20;;;;;;;;;;4446570;32;20352;-78
2022/01/24 15:05:24;;;;;;;20.43;11.70;;;;;;;;;;4463013;32;20263;-79
2022/01/24 15:07:49;;;;;;;21.30;12.27;;;;;;;;;;4449030;32;20259;-78
2022/01/24 15:10:15;;;;;;;21.67;12.97;;;;;;;;;;4463050;32;20336;-79
2022/01/24 15:12:47;;;;;;;37.93;16.97;;;;;;;;;;4461565;32;20345;-78
2022/01/24 15:15:16;;;;;;;18.40;11.40;;;;;;;;;;4459856;32;20287;-76
2022/01/24 15:25:58;;;;;;;18.93;12.37;;;;;;;;;;4459697;32;20293;-84
2022/01/24 15:28:24;;;;;;;23.50;11.67;;;;;;;;;;4452845;32;20225;-96
2022/01/24 15:30:50;;;;;;;36.30;14.63;;;;;;;;;;4453708;32;20209;-84
2022/01/24 15:33:16;;;;;;;27.37;13.90;;;;;;;;;;4453105;32;20288;-82
2022/01/24 15:35:41;;;;;;;23.73;12.93;;;;;;;;;;4452710;32;20332;-81
2022/01/24 15:38:07;;;;;;;23.50;11.37;;;;;;;;;;4452428;32;20228;-86
2022/01/24 15:40:34;;;;;;;18.00;11.57;;;;;;;;;;4452126;32;20584;-82
2022/01/24 15:43:25;;;;;;;18.60;10.50;;;;;;;;;;4438255;32;20565;-82
2022/01/24 15:46:02;;;;;;;16.97;11.07;;;;;;;;;;4452458;32;20189;-92
2022/01/24 15:48:28;;;;;;;22.77;12.73;;;;;;;;;;4452837;32;20228;-87
2022/01/24 15:50:53;;;;;;;18.83;11.40;;;;;;;;;;4452417;32;20609;-94
2022/01/24 15:53:20;;;;;;;15.87;10.43;;;;;;;;;;4453003;32;20227;-92
2022/01/24 15:56:12;;;;;;;26.00;12.97;;;;;;;;;;4454380;32;20196;-84
2022/01/24 15:58:34;;;;;;;50.77;24.33;;;;;;;;;;4453758;32;20367;-83
2022/01/24 16:00:59;;;;;;;24.13;13.03;;;;;;;;;;4457085;32;20335;-92
2022/01/24 16:03:24;;;;;;;27.97;14.40;;;;;;;;;;4443703;32;20227;-90
2022/01/24 16:05:50;;;;;;;25.93;16.00;;;;;;;;;;4456444;32;20292;-90
2022/01/24 16:08:21;;;;;;;23.53;15.10;;;;;;;;;;4454917;32;20221;-86
2022/01/24 16:10:47;;;;;;;23.77;15.27;;;;;;;;;;4451563;32;20263;-90
2022/01/24 16:13:13;;;;;;;43.50;19.33;;;;;;;;;;4460338;32;20192;-84
2022/01/24 16:15:40;;;;;;;38.83;19.83;;;;;;;;;;4451572;32;20295;-80
2022/01/24 16:18:08;;;;;;;42.63;18.70;;;;;;;;;;4448621;32;20274;-80
2022/01/24 16:21:00;;;;;;;50.80;21.33;;;;;;;;;;4450016;32;20272;-79
2022/01/24 16:25:50;;;;;;;32.00;16.30;;;;;;;;;;4457668;27;20301;-80
2022/01/24 16:28:22;;;;;;;26.43;13.67;;;;;;;;;;4445763;32;20264;-81
2022/01/24 16:30:48;;;;;;;34.53;15.27;;;;;;;;;;4463068;27;20249;-84
2022/01/24 16:33:18;;;;;;;35.83;18.50;;;;;;;;;;4459924;32;20279;-81
2022/01/24 16:35:44;;;;;;;37.00;20.77;;;;;;;;;;4467998;27;20264;-82
2022/01/24 16:38:11;;;;;;;35.47;17.50;;;;;;;;;;4445239;32;20205;-81
2022/01/24 16:48:34;;;;;;;120.07;46.10;;;;;;;;;;4436024;32;20219;-83
2022/01/24 16:51:01;;;;;;;80.27;36.23;;;;;;;;;;4423321;32;20267;-93
2022/01/24 16:53:28;;;;;;;53.63;28.33;;;;;;;;;;4437713;32;20711;-84
2022/01/24 16:55:57;;;;;;;51.73;25.00;;;;;;;;;;4435016;32;20232;-90
2022/01/24 16:58:23;;;;;;;28.40;17.63;;;;;;;;;;4435491;32;20209;-93